Mc Allen Miller International Airport
KMFE : now visible

Airfield :











YOU CAN JOIN US ON...

 
LOGIN :

Register | Disclaimer

   EN    FR    IT 

 









Legend :    VFR   Marginal VFR   IFR   Intensive IFR   Very Intensive IFR
Visi :
Ceiling :
>= 8 km
>= 3000ft
5 to 8 km
1000 to 3000 ft
1500m to 5 km
500 to 1000 ft
800 to 1500m
200 to 500 ft
< 800m
< 200 ft
Symbols :   Thunderstorms  Fog  Heavy snow  Heavy precipitations  Wind > 20 kt






- Airport Elevation : 107 ft
- IATA code : MFE


KMFE - Mc Allen Miller International

CURRENT METAR :
  • 281353Z 10008KT 10SM SCT014 BKN040 28/24 A2993 RMK AO2 SLP132 T02780239

EXPIRED METARs :
  • 281253Z 08009KT 10SM CLR 27/23 A2991 RMK AO2 SLP126 T02720233
  • 281153Z 06008KT 10SM FEW021 BKN037 27/23 A2991 RMK AO2 SLP125 T02670233 10267 20250 53007
  • 281119Z 06007KT 10SM FEW014 SCT020 OVC037 27/24 A2990 RMK AO2 T02670239

TAF KMFE
Valid from the 28 at 12:00 until the 29 at 12:00 UTC


281120Z 2812/2912 10009KT P6SM FEW015 SCT030
TEMPO 2812/2814 BKN025
FM281500 14012G20KT P6SM FEW020 SCT035
FM281800 14012KT P6SM FEW040 BKN150
FM290200 10008KT P6SM FEW020 BKN150
PROB30 2903/2906 4SM -TSRA BKN012CB
FM290600 VRB05KT P6SM BKN020
PROB30 2906/2912 4SM -TSRA OVC020CB
KZHU FIR / North America



MET'MAP, your aeronautical weather chart ! - Copyright ORBIFLY December 2007 - Disclaimer

ORBIFLY MET'MAP TEAM :

Programming & Development : Alexandra Zaïnal
Concept & original design : Baudouin d'Aumeries
Assistance for programming : Marc-Olivier Méhu
Technical & hardware support : Manuel Goepfert

Contact : metmap@orbifly.com




SOURCES & CREDITS :

   NOAA       Earth
Advisory